Terminal Aerodrome Forecast
Issued by NWS Twin Cities, MN

Home | Current Version | Previous Version | Text Only | Print | Product List | Glossary On
Versions: 1 2 3 4 5 6 7 8 9 10 11 12 13 14 15 16 17 18 19 20 21 22 23 24
000
FTUS43 KMPX 041434 AAA
TAFMSP
TAF AMD
KMSP 041434Z 0415/0518 25007KT P6SM SCT250
     FM041700 29008KT P6SM FEW060 SCT250
     FM050100 VRB03KT P6SM SKC
     FM051500 15005KT P6SM SKC=

USA.gov is the U.S. government's official web portal to all federal, state and local government web resources and services.